Time;durP1;ratioP1;P1;durP2;ratioP2;P2;SDS_P1;SDS_P2;PMS_P1;PMS_P2;Temp;Humidity;BMP_temperature;BMP_pressure;BME280_temperature;BME280_humidity;BME280_pressure;Samples;Min_cycle;Max_cycle;Signal;HPM_P1;HPM_P2
2023/09/18 00:02:02;;;;;;;5.27;4.00;;;23.80;99.90;;;;;;4937783;29;20649;-77
2023/09/18 00:04:27;;;;;;;4.23;3.10;;;23.80;99.90;;;;;;4929781;29;20242;-77
2023/09/18 00:06:53;;;;;;;5.40;3.60;;;23.80;99.90;;;;;;4939387;29;20184;-75
2023/09/18 00:09:19;;;;;;;7.57;4.83;;;23.80;99.90;;;;;;4935270;29;20216;-74
2023/09/18 00:11:44;;;;;;;4.03;3.10;;;23.80;99.90;;;;;;4934587;29;20173;-74
2023/09/18 00:14:10;;;;;;;4.40;2.90;;;23.80;99.90;;;;;;4919102;29;20184;-74
2023/09/18 00:16:35;;;;;;;7.93;3.53;;;23.70;99.90;;;;;;4940892;29;20181;-74
2023/09/18 00:19:02;;;;;;;3.80;3.23;;;23.70;99.90;;;;;;4916965;29;20732;-75
2023/09/18 00:21:30;;;;;;;4.97;3.60;;;23.70;99.90;;;;;;4916303;29;20731;-75
2023/09/18 00:23:57;;;;;;;5.43;4.17;;;23.70;99.90;;;;;;4918756;29;20671;-75
2023/09/18 00:26:25;;;;;;;5.77;3.83;;;23.70;99.90;;;;;;4934586;29;20592;-74
2023/09/18 00:28:52;;;;;;;4.57;3.37;;;23.70;99.90;;;;;;4934484;29;20997;-75
2023/09/18 00:31:19;;;;;;;3.50;2.90;;;23.70;99.90;;;;;;4934577;29;20597;-74
2023/09/18 00:33:45;;;;;;;5.23;3.37;;;23.70;99.90;;;;;;4934324;29;20177;-74
2023/09/18 00:36:11;;;;;;;7.03;3.67;;;23.70;99.90;;;;;;4918644;29;20589;-75
2023/09/18 00:38:36;;;;;;;7.80;3.63;;;23.70;99.90;;;;;;4934213;29;20302;-75
2023/09/18 00:41:02;;;;;;;9.10;4.30;;;23.70;99.90;;;;;;4934323;29;20200;-74
2023/09/18 00:43:28;;;;;;;6.07;3.57;;;23.60;99.90;;;;;;4933825;29;20337;-74
2023/09/18 00:45:54;;;;;;;6.20;2.93;;;23.60;99.90;;;;;;4935753;29;20684;-74
2023/09/18 00:48:20;;;;;;;5.23;2.80;;;23.60;99.90;;;;;;4934252;29;20208;-74
2023/09/18 00:50:46;;;;;;;7.60;2.97;;;23.60;99.90;;;;;;4918302;29;20571;-74
2023/09/18 00:53:19;;;;;;;4.43;2.53;;;23.60;99.90;;;;;;4917958;29;20927;-74
2023/09/18 00:55:46;;;;;;;4.30;2.90;;;23.60;99.90;;;;;;4932586;29;20645;-75
2023/09/18 00:58:12;;;;;;;3.70;2.73;;;23.60;99.90;;;;;;4913259;29;20660;-75
2023/09/18 01:00:38;;;;;;;5.60;3.50;;;23.60;99.90;;;;;;4917802;29;20652;-74
2023/09/18 01:03:07;;;;;;;7.70;4.03;;;23.60;99.90;;;;;;4933546;29;20605;-74
2023/09/18 01:05:35;;;;;;;5.90;3.03;;;23.50;99.90;;;;;;4936545;29;20988;-73
2023/09/18 01:08:01;;;;;;;5.90;3.60;;;23.50;99.90;;;;;;4927549;29;20589;-73
2023/09/18 01:10:39;;;;;;;4.33;3.03;;;23.50;99.90;;;;;;4933749;29;20596;-73
2023/09/18 01:13:15;;;;;;;5.93;3.53;;;23.50;99.90;;;;;;4933653;29;20601;-73
2023/09/18 01:15:51;;;;;;;5.93;4.10;;;23.50;99.90;;;;;;4924754;29;20616;-74
2023/09/18 01:18:18;;;;;;;6.77;3.40;;;23.50;99.90;;;;;;4933866;29;20655;-74
2023/09/18 01:20:44;;;;;;;6.17;3.70;;;23.50;99.90;;;;;;4930663;28;20798;-74
2023/09/18 01:23:11;;;;;;;6.93;3.67;;;23.50;99.90;;;;;;4898359;29;20585;-74
2023/09/18 01:25:37;;;;;;;5.17;3.70;;;23.50;99.90;;;;;;4898983;29;20642;-74
2023/09/18 01:28:03;;;;;;;6.03;3.50;;;23.50;99.90;;;;;;4903664;29;20600;-74
2023/09/18 01:30:29;;;;;;;6.73;3.50;;;23.50;99.90;;;;;;4901794;29;20588;-73
2023/09/18 01:32:58;;;;;;;4.20;3.27;;;23.50;99.90;;;;;;4933439;29;20589;-75
2023/09/18 01:35:29;;;;;;;6.63;3.20;;;23.50;99.90;;;;;;4917936;29;20181;-74
2023/09/18 01:37:59;;;;;;;6.63;3.20;;;23.50;99.90;;;;;;4917562;29;21184;-73
2023/09/18 01:40:26;;;;;;;6.20;3.47;;;23.50;99.90;;;;;;4935641;29;20738;-74
2023/09/18 01:42:52;;;;;;;6.60;3.77;;;23.50;99.90;;;;;;4928015;29;20584;-75
2023/09/18 01:45:18;;;;;;;4.30;3.30;;;23.50;99.90;;;;;;4945536;29;20584;-72
2023/09/18 01:47:45;;;;;;;7.00;2.73;;;23.50;99.90;;;;;;4911423;29;20572;-74
2023/09/18 01:50:11;;;;;;;7.63;3.50;;;23.50;99.90;;;;;;4936239;29;20283;-74
2023/09/18 01:52:36;;;;;;;4.97;3.00;;;23.50;99.90;;;;;;4953039;29;20683;-74
2023/09/18 01:55:05;;;;;;;5.60;2.80;;;23.50;99.90;;;;;;4936044;29;20909;-74
2023/09/18 01:57:31;;;;;;;4.83;3.13;;;23.40;99.90;;;;;;4943947;29;20203;-74
2023/09/18 01:59:57;;;;;;;4.80;3.20;;;23.40;99.90;;;;;;4951826;29;20611;-74
2023/09/18 02:02:23;;;;;;;6.10;2.87;;;23.40;99.90;;;;;;4944852;29;20184;-78
2023/09/18 02:04:49;;;;;;;5.93;2.90;;;23.40;99.90;;;;;;4934889;29;20169;-80
2023/09/18 02:07:15;;;;;;;4.77;3.07;;;23.40;99.90;;;;;;4937630;29;20592;-79
2023/09/18 02:09:41;;;;;;;4.70;3.30;;;23.40;99.90;;;;;;4927232;29;20611;-79
2023/09/18 02:12:07;;;;;;;5.10;3.47;;;23.40;99.90;;;;;;4932935;29;20245;-79
2023/09/18 02:14:33;;;;;;;4.60;3.30;;;23.40;99.90;;;;;;4941867;29;20185;-79
2023/09/18 02:17:00;;;;;;;5.43;2.67;;;23.40;99.90;;;;;;4931332;29;20601;-79
2023/09/18 02:19:26;;;;;;;4.90;2.97;;;23.40;99.90;;;;;;4914509;29;20696;-79
2023/09/18 02:21:52;;;;;;;9.53;3.43;;;23.40;99.90;;;;;;4940454;29;20667;-79
2023/09/18 02:24:19;;;;;;;4.33;3.37;;;23.40;99.90;;;;;;4931604;29;20205;-79
2023/09/18 02:26:45;;;;;;;6.90;3.80;;;23.40;99.90;;;;;;4928610;29;20698;-79
2023/09/18 02:29:13;;;;;;;6.93;3.23;;;23.40;99.90;;;;;;4946353;29;20711;-79
2023/09/18 02:31:39;;;;;;;7.83;3.27;;;23.50;99.90;;;;;;4945179;29;20596;-79
2023/09/18 02:34:05;;;;;;;12.27;4.73;;;23.40;99.90;;;;;;4948961;29;20601;-77
2023/09/18 02:36:30;;;;;;;5.10;3.67;;;23.40;99.90;;;;;;4949800;29;20937;-79
2023/09/18 02:38:56;;;;;;;5.67;3.40;;;23.40;99.90;;;;;;4944929;29;20632;-77
2023/09/18 02:41:22;;;;;;;5.53;3.23;;;23.40;99.90;;;;;;4929439;29;20259;-79
2023/09/18 02:43:48;;;;;;;7.93;3.77;;;23.40;99.90;;;;;;4946161;29;20184;-79
2023/09/18 02:46:13;;;;;;;6.70;3.67;;;23.40;99.90;;;;;;4907091;29;20170;-79
2023/09/18 02:48:39;;;;;;;4.20;3.13;;;23.30;99.90;;;;;;4940673;29;20830;-77
2023/09/18 02:51:05;;;;;;;4.80;3.90;;;23.30;99.90;;;;;;4944936;29;20663;-79
2023/09/18 02:53:31;;;;;;;6.20;4.03;;;23.20;99.90;;;;;;4944212;29;20657;-76
2023/09/18 02:55:59;;;;;;;6.50;3.43;;;23.20;99.90;;;;;;4944801;29;21168;-77
2023/09/18 02:58:26;;;;;;;4.97;4.23;;;23.20;99.90;;;;;;4960330;29;20608;-76
2023/09/18 03:01:03;;;;;;;7.10;3.10;;;23.20;99.90;;;;;;4954852;29;20728;-77
2023/09/18 03:03:29;;;;;;;6.57;3.40;;;23.10;99.90;;;;;;4940002;29;20695;-78
2023/09/18 03:06:04;;;;;;;4.43;3.50;;;23.10;99.90;;;;;;4934576;29;20623;-78
2023/09/18 03:08:30;;;;;;;5.90;3.30;;;23.10;99.90;;;;;;4933776;29;20627;-78
2023/09/18 03:10:57;;;;;;;6.17;3.20;;;23.10;99.90;;;;;;4936670;29;21391;-78
2023/09/18 03:13:24;;;;;;;7.50;3.43;;;23.10;99.90;;;;;;4928276;29;20662;-77
2023/09/18 03:15:50;;;;;;;6.33;4.43;;;23.10;99.90;;;;;;4936908;29;20212;-77
2023/09/18 03:18:16;;;;;;;4.77;4.00;;;23.10;99.90;;;;;;4936997;29;20592;-78
2023/09/18 03:20:42;;;;;;;4.20;3.03;;;23.10;99.90;;;;;;4958267;29;20638;-78
2023/09/18 03:23:08;;;;;;;4.90;3.17;;;23.00;99.90;;;;;;4934244;29;21166;-78
2023/09/18 03:25:37;;;;;;;4.87;3.37;;;23.00;99.90;;;;;;4949473;29;20687;-78
2023/09/18 03:28:03;;;;;;;5.40;3.40;;;23.00;99.90;;;;;;4939947;29;20178;-78
2023/09/18 03:30:31;;;;;;;4.70;3.60;;;22.90;99.90;;;;;;4943231;29;20601;-78
2023/09/18 03:32:56;;;;;;;5.57;3.47;;;22.90;99.90;;;;;;4953489;29;20589;-78
2023/09/18 03:35:24;;;;;;;4.20;3.80;;;22.80;99.90;;;;;;4937899;29;20710;-78
2023/09/18 03:37:51;;;;;;;5.40;3.63;;;22.80;99.90;;;;;;4956149;29;20616;-78
2023/09/18 03:40:19;;;;;;;6.20;3.70;;;22.70;99.90;;;;;;4927639;29;20217;-78
2023/09/18 03:42:45;;;;;;;4.57;3.50;;;22.70;99.90;;;;;;4934110;29;21067;-78
2023/09/18 03:45:11;;;;;;;6.17;3.33;;;22.70;99.90;;;;;;4951391;29;20589;-78
2023/09/18 03:47:39;;;;;;;4.73;3.30;;;22.70;99.90;;;;;;4940423;29;20599;-78
2023/09/18 03:50:09;;;;;;;6.23;3.03;;;22.70;99.90;;;;;;4959258;29;21204;-79
2023/09/18 03:52:35;;;;;;;6.50;3.60;;;22.70;99.90;;;;;;4944272;29;20580;-79
2023/09/18 03:55:01;;;;;;;5.80;3.20;;;22.70;99.90;;;;;;4958140;29;20586;-79
2023/09/18 03:57:27;;;;;;;6.83;2.70;;;22.70;99.90;;;;;;4965998;29;20595;-78
2023/09/18 03:59:53;;;;;;;4.37;2.67;;;22.70;99.90;;;;;;4963914;29;20758;-79
2023/09/18 04:02:18;;;;;;;6.60;2.67;;;22.60;99.90;;;;;;4941509;29;20211;-79
2023/09/18 04:04:44;;;;;;;7.03;2.67;;;22.70;99.90;;;;;;4947896;29;20184;-78
2023/09/18 04:07:11;;;;;;;11.10;3.20;;;22.70;99.90;;;;;;4950823;29;20228;-79
2023/09/18 04:09:37;;;;;;;10.10;3.37;;;22.70;99.90;;;;;;4960170;29;20224;-78
2023/09/18 04:12:05;;;;;;;7.90;4.00;;;22.70;99.90;;;;;;4956593;29;20644;-78
2023/09/18 04:14:32;;;;;;;6.70;2.80;;;22.70;99.90;;;;;;4948149;29;20625;-78
2023/09/18 04:16:57;;;;;;;5.47;2.90;;;22.70;99.90;;;;;;4939828;29;20692;-79
2023/09/18 04:19:23;;;;;;;6.20;2.50;;;22.70;99.90;;;;;;4941287;29;21038;-78
2023/09/18 04:21:49;;;;;;;9.80;3.10;;;22.70;99.90;;;;;;4956836;29;20664;-79
2023/09/18 04:24:15;;;;;;;10.53;3.57;;;22.70;99.90;;;;;;4950667;29;20592;-76
2023/09/18 04:26:41;;;;;;;5.43;2.37;;;22.70;99.90;;;;;;4930007;29;20196;-76
2023/09/18 04:29:07;;;;;;;8.33;3.57;;;22.70;99.90;;;;;;4953648;29;21167;-76
2023/09/18 04:31:32;;;;;;;5.87;3.23;;;22.70;99.90;;;;;;4953698;29;20190;-76
2023/09/18 04:33:59;;;;;;;6.77;2.53;;;22.70;99.90;;;;;;4953812;29;20180;-76
2023/09/18 04:36:24;;;;;;;5.87;2.57;;;22.70;99.90;;;;;;4937507;29;20767;-76
2023/09/18 04:38:50;;;;;;;6.23;2.90;;;22.70;99.90;;;;;;4953083;29;20216;-75
2023/09/18 04:41:16;;;;;;;5.83;3.27;;;22.70;99.90;;;;;;4936997;29;20236;-75
2023/09/18 04:43:43;;;;;;;7.03;3.27;;;22.70;99.90;;;;;;4936847;29;20629;-75
2023/09/18 04:46:08;;;;;;;5.90;3.07;;;22.60;99.90;;;;;;4937467;29;20618;-76
2023/09/18 04:48:35;;;;;;;9.33;3.97;;;22.70;99.90;;;;;;4945606;29;21010;-75
2023/09/18 04:51:03;;;;;;;5.67;2.90;;;22.60;99.90;;;;;;4929279;29;20584;-75
2023/09/18 04:53:30;;;;;;;12.20;3.37;;;22.70;99.90;;;;;;4953065;29;20592;-76
2023/09/18 04:55:57;;;;;;;6.83;3.33;;;22.60;99.90;;;;;;4952055;29;20607;-76
2023/09/18 04:58:22;;;;;;;8.10;2.90;;;22.60;99.90;;;;;;4931515;29;20624;-75
2023/09/18 05:00:55;;;;;;;7.80;2.70;;;22.60;99.90;;;;;;4928156;29;20801;-75
2023/09/18 05:03:24;;;;;;;7.13;2.77;;;22.60;99.90;;;;;;4922918;29;20268;-75
2023/09/18 05:05:50;;;;;;;9.67;4.27;;;22.60;99.90;;;;;;4933542;29;20593;-75
2023/09/18 05:08:16;;;;;;;6.23;2.90;;;22.60;99.90;;;;;;4903894;29;20633;-75
2023/09/18 05:10:43;;;;;;;6.00;2.83;;;22.70;99.90;;;;;;4935148;29;20220;-76
2023/09/18 05:13:11;;;;;;;5.93;2.30;;;22.70;99.90;;;;;;4931392;29;20934;-75
2023/09/18 05:15:37;;;;;;;5.80;2.50;;;22.70;99.90;;;;;;4921748;29;20597;-74
2023/09/18 05:18:06;;;;;;;5.43;2.47;;;22.70;99.90;;;;;;4917760;29;20650;-76
2023/09/18 05:20:34;;;;;;;6.10;2.60;;;22.70;99.90;;;;;;4933649;29;20767;-76
2023/09/18 05:23:01;;;;;;;4.10;2.63;;;22.70;99.90;;;;;;4915458;29;20662;-75
2023/09/18 05:25:31;;;;;;;9.33;2.40;;;22.80;99.90;;;;;;4942439;29;20678;-76
2023/09/18 05:27:59;;;;;;;7.17;2.73;;;22.80;99.90;;;;;;4943936;29;20600;-76
2023/09/18 05:30:38;;;;;;;6.37;2.93;;;22.80;99.90;;;;;;4938681;29;20594;-76
2023/09/18 05:33:05;;;;;;;6.13;2.83;;;22.70;99.90;;;;;;4925355;29;20597;-76
2023/09/18 05:35:36;;;;;;;5.53;2.10;;;22.70;99.90;;;;;;4927053;29;20588;-76
2023/09/18 05:38:03;;;;;;;6.80;2.70;;;22.80;99.90;;;;;;4931588;29;20627;-76
2023/09/18 05:40:29;;;;;;;3.93;2.10;;;22.80;99.90;;;;;;4912826;29;20679;-76
2023/09/18 05:42:55;;;;;;;7.67;2.80;;;22.80;99.90;;;;;;4924370;29;20597;-76
2023/09/18 05:45:21;;;;;;;9.10;3.43;;;22.80;99.90;;;;;;4880399;29;20609;-76
2023/09/18 05:47:48;;;;;;;8.20;2.47;;;22.70;99.90;;;;;;4942598;29;20584;-76
2023/09/18 05:50:17;;;;;;;4.37;2.00;;;22.80;99.90;;;;;;4933076;29;20675;-76
2023/09/18 05:52:44;;;;;;;6.47;2.63;;;22.80;99.90;;;;;;4934349;29;20592;-76
2023/09/18 05:55:10;;;;;;;6.50;2.70;;;22.80;99.90;;;;;;4933367;29;20601;-76
2023/09/18 05:57:36;;;;;;;4.10;2.27;;;22.80;99.90;;;;;;4935519;29;21240;-76
2023/09/18 06:00:03;;;;;;;6.00;2.87;;;22.80;99.90;;;;;;4916074;29;21233;-77
2023/09/18 06:02:37;;;;;;;7.50;2.83;;;22.80;99.90;;;;;;4925850;29;21154;-77
2023/09/18 06:05:12;;;;;;;5.50;2.70;;;22.80;99.90;;;;;;4925707;29;20596;-77
2023/09/18 06:07:38;;;;;;;6.77;2.47;;;22.70;99.90;;;;;;4908621;29;20192;-76
2023/09/18 06:10:04;;;;;;;5.30;2.63;;;22.80;99.90;;;;;;4903768;29;20707;-76
2023/09/18 06:12:30;;;;;;;2.80;1.60;;;22.80;99.90;;;;;;4916072;29;20601;-76
2023/09/18 06:14:56;;;;;;;5.30;1.70;;;22.80;99.90;;;;;;4922947;29;20589;-76
2023/09/18 06:17:22;;;;;;;3.10;1.40;;;22.80;99.90;;;;;;4913627;29;20233;-77
2023/09/18 06:20:15;;;;;;;8.80;1.47;;;22.80;99.90;;;;;;4936987;29;20208;-77
2023/09/18 06:23:07;;;;;;;3.43;1.47;;;22.80;99.90;;;;;;4935828;29;20570;-76
2023/09/18 06:25:32;;;;;;;4.73;2.03;;;22.80;99.90;;;;;;4933108;29;20592;-76
2023/09/18 06:28:03;;;;;;;3.40;1.50;;;22.90;99.90;;;;;;4909521;29;20558;-76
2023/09/18 06:30:30;;;;;;;5.53;1.83;;;22.90;99.90;;;;;;4939500;29;20587;-76
2023/09/18 06:32:56;;;;;;;4.77;1.70;;;23.00;99.90;;;;;;4948404;29;21340;-75
2023/09/18 06:35:22;;;;;;;2.97;1.50;;;23.00;99.90;;;;;;4899257;29;20653;-76
2023/09/18 06:37:48;;;;;;;5.50;1.90;;;23.00;99.90;;;;;;4945367;29;20596;-75
2023/09/18 06:40:14;;;;;;;3.20;1.67;;;23.10;99.90;;;;;;4931631;29;20716;-75
2023/09/18 06:42:39;;;;;;;3.00;1.53;;;23.10;99.90;;;;;;4939920;29;20524;-76
2023/09/18 06:45:06;;;;;;;4.03;1.53;;;23.10;99.90;;;;;;4916233;29;20636;-76
2023/09/18 06:47:33;;;;;;;5.73;1.47;;;23.10;99.90;;;;;;4930436;29;20176;-76
2023/09/18 06:50:00;;;;;;;2.67;1.70;;;23.20;99.90;;;;;;4944195;29;20624;-77
2023/09/18 06:52:27;;;;;;;5.73;1.40;;;23.20;99.90;;;;;;4947096;29;20592;-77
2023/09/18 06:54:53;;;;;;;4.90;1.40;;;23.20;99.90;;;;;;4914991;29;21165;-77
2023/09/18 06:57:21;;;;;;;4.67;1.90;;;23.30;99.90;;;;;;4951747;29;20631;-77
2023/09/18 06:59:47;;;;;;;4.90;1.20;;;23.40;99.90;;;;;;4941410;29;20628;-78
2023/09/18 07:02:16;;;;;;;5.73;1.57;;;23.40;99.90;;;;;;4909430;29;21199;-77
2023/09/18 07:04:45;;;;;;;3.90;1.20;;;23.50;99.90;;;;;;4947169;29;21131;-77
2023/09/18 07:07:13;;;;;;;4.57;1.20;;;23.50;99.90;;;;;;4932932;29;20596;-77
2023/09/18 07:09:42;;;;;;;2.07;1.00;;;23.60;99.90;;;;;;4949256;29;21223;-77
2023/09/18 07:12:09;;;;;;;4.60;1.50;;;23.60;99.90;;;;;;4949067;29;20671;-77
2023/09/18 07:14:36;;;;;;;3.40;1.20;;;23.70;99.90;;;;;;4935404;29;21080;-77
2023/09/18 07:17:02;;;;;;;4.77;1.10;;;23.80;99.90;;;;;;4951106;28;20592;-78
2023/09/18 07:19:28;;;;;;;3.10;1.20;;;23.90;99.90;;;;;;4951082;29;20653;-76
2023/09/18 07:21:53;;;;;;;4.87;1.13;;;24.00;99.90;;;;;;4929401;29;21384;-77
2023/09/18 07:24:20;;;;;;;3.87;1.00;;;24.20;99.90;;;;;;4954910;29;20212;-77
2023/09/18 07:26:48;;;;;;;2.37;1.07;;;24.30;99.90;;;;;;4939206;29;20195;-77
2023/09/18 07:29:15;;;;;;;2.83;1.20;;;24.40;99.90;;;;;;4944745;29;21188;-76
2023/09/18 07:31:42;;;;;;;1.80;1.00;;;24.60;99.90;;;;;;4935888;29;20937;-76
2023/09/18 07:34:09;;;;;;;2.77;0.97;;;24.60;99.90;;;;;;4940115;29;20606;-77
2023/09/18 07:36:37;;;;;;;3.07;0.97;;;24.70;99.90;;;;;;4950276;29;21220;-77
2023/09/18 07:39:04;;;;;;;2.23;0.97;;;24.70;99.90;;;;;;4928816;29;20711;-77
2023/09/18 07:41:31;;;;;;;3.50;1.83;;;24.70;99.90;;;;;;4937680;29;20641;-77
2023/09/18 07:43:58;;;;;;;2.93;0.97;;;24.70;99.90;;;;;;4915375;29;20604;-77
2023/09/18 07:46:24;;;;;;;3.10;1.07;;;24.70;99.90;;;;;;4943734;29;21122;-77
2023/09/18 07:48:50;;;;;;;2.50;1.00;;;24.80;99.90;;;;;;4927112;29;21210;-76
2023/09/18 07:51:16;;;;;;;2.10;0.80;;;24.80;99.90;;;;;;4938709;29;21007;-77
2023/09/18 07:53:42;;;;;;;1.90;0.80;;;24.80;99.90;;;;;;4924168;29;20643;-76
2023/09/18 07:56:08;;;;;;;2.33;0.90;;;24.80;99.90;;;;;;4936590;29;20223;-77
2023/09/18 07:58:38;;;;;;;5.47;1.33;;;24.90;99.90;;;;;;4929668;29;20633;-76
2023/09/18 08:01:05;;;;;;;3.37;1.10;;;24.90;99.90;;;;;;4928160;29;20681;-77
2023/09/18 08:03:34;;;;;;;2.10;0.90;;;24.80;99.90;;;;;;4925519;29;20595;-76
2023/09/18 08:06:00;;;;;;;2.40;0.90;;;24.90;99.90;;;;;;4926432;29;20945;-76
2023/09/18 08:08:26;;;;;;;3.03;0.90;;;24.80;99.90;;;;;;4916196;29;20629;-76
2023/09/18 08:10:53;;;;;;;3.07;0.90;;;24.80;99.90;;;;;;4947599;29;20689;-77
2023/09/18 08:13:24;;;;;;;2.93;0.73;;;24.80;99.90;;;;;;4938046;29;20279;-77
2023/09/18 08:15:50;;;;;;;2.60;0.70;;;24.80;99.90;;;;;;4955381;29;20587;-77
2023/09/18 08:18:16;;;;;;;3.70;0.77;;;24.80;99.90;;;;;;4938137;29;20950;-76
2023/09/18 08:20:42;;;;;;;2.17;0.87;;;24.80;99.90;;;;;;4953901;29;20635;-77
2023/09/18 08:23:09;;;;;;;8.43;1.40;;;24.80;99.90;;;;;;4935077;29;20213;-77
2023/09/18 08:25:35;;;;;;;3.00;1.20;;;24.90;99.90;;;;;;4911027;29;21088;-77
2023/09/18 08:28:03;;;;;;;3.00;1.20;;;24.90;99.90;;;;;;4945746;29;20691;-77
2023/09/18 08:30:29;;;;;;;3.00;1.00;;;25.00;99.90;;;;;;4952852;28;20225;-77
2023/09/18 08:32:54;;;;;;;2.90;0.90;;;25.00;99.90;;;;;;4954725;29;20599;-77
2023/09/18 08:35:21;;;;;;;4.47;1.00;;;25.10;99.90;;;;;;4946669;29;21242;-77
2023/09/18 08:37:47;;;;;;;3.70;1.03;;;25.10;99.90;;;;;;4931774;29;20205;-76
2023/09/18 08:40:14;;;;;;;4.10;1.20;;;25.20;99.90;;;;;;4901646;29;21070;-77
2023/09/18 08:42:45;;;;;;;3.83;1.00;;;25.20;99.90;;;;;;4916747;29;20549;-76
2023/09/18 08:45:33;;;;;;;5.17;1.00;;;25.20;99.90;;;;;;4947085;29;20671;-77
2023/09/18 08:48:01;;;;;;;1.90;0.70;;;25.20;99.90;;;;;;4954147;29;20659;-76
2023/09/18 08:50:28;;;;;;;3.67;1.07;;;25.30;99.90;;;;;;4915327;29;20603;-77
2023/09/18 08:52:55;;;;;;;1.83;0.70;;;25.30;99.90;;;;;;4937999;29;20671;-77
2023/09/18 08:55:21;;;;;;;2.63;0.93;;;25.30;99.90;;;;;;4910896;29;20636;-76
2023/09/18 08:57:47;;;;;;;5.40;1.23;;;25.30;99.90;;;;;;4934408;29;20624;-76
2023/09/18 09:00:16;;;;;;;1.70;0.70;;;25.40;99.90;;;;;;4936489;29;20205;-77
2023/09/18 09:02:44;;;;;;;2.57;0.80;;;25.50;99.90;;;;;;4920160;29;20606;-77
2023/09/18 09:05:10;;;;;;;2.97;1.33;;;25.60;99.90;;;;;;4928436;29;20608;-77
2023/09/18 09:07:35;;;;;;;1.80;0.70;;;25.80;99.90;;;;;;4948208;29;20669;-76
2023/09/18 09:10:01;;;;;;;1.60;0.70;;;26.00;99.90;;;;;;4942710;29;20199;-76
2023/09/18 09:12:50;;;;;;;4.03;0.90;;;26.00;99.90;;;;;;4942403;29;20290;-77
2023/09/18 09:15:15;;;;;;;3.10;0.80;;;26.10;99.90;;;;;;4924902;29;20204;-77
2023/09/18 09:17:42;;;;;;;2.50;0.70;;;26.10;99.90;;;;;;4922358;29;20612;-77
2023/09/18 09:20:12;;;;;;;4.30;1.00;;;26.10;99.90;;;;;;4944395;29;20671;-77
2023/09/18 09:22:40;;;;;;;1.97;0.80;;;26.10;99.90;;;;;;4953153;29;20596;-77
2023/09/18 09:25:33;;;;;;;2.43;0.80;;;26.10;99.90;;;;;;4937337;29;20600;-76
2023/09/18 09:28:07;;;;;;;4.17;1.20;;;26.10;99.90;;;;;;4925739;29;20604;-75
2023/09/18 09:30:35;;;;;;;2.17;0.90;;;26.10;99.90;;;;;;4912022;29;20605;-76
2023/09/18 09:33:04;;;;;;;1.60;0.70;;;26.10;99.90;;;;;;4928483;29;20689;-76
2023/09/18 09:35:33;;;;;;;3.00;0.80;;;26.10;99.90;;;;;;4943052;29;21045;-75
2023/09/18 09:38:19;;;;;;;2.10;0.80;;;26.20;99.90;;;;;;4919484;29;20634;-76
2023/09/18 09:40:45;;;;;;;1.40;0.70;;;26.20;99.90;;;;;;4912474;29;20699;-76
2023/09/18 09:43:14;;;;;;;1.90;0.60;;;26.40;99.90;;;;;;4928617;29;20581;-76
2023/09/18 09:45:40;;;;;;;3.00;0.77;;;26.50;99.90;;;;;;4933613;29;20181;-76
2023/09/18 09:48:08;;;;;;;1.80;0.77;;;26.50;99.90;;;;;;4924441;29;20695;-77
2023/09/18 09:50:46;;;;;;;4.80;1.17;;;26.60;99.90;;;;;;4952544;29;20596;-76
2023/09/18 09:53:13;;;;;;;2.87;1.00;;;26.70;99.90;;;;;;4936513;29;20608;-76
2023/09/18 09:55:40;;;;;;;4.20;0.80;;;26.80;99.90;;;;;;4933770;29;20716;-77
2023/09/18 09:58:07;;;;;;;4.00;1.23;;;26.90;99.90;;;;;;4931923;29;20597;-76
2023/09/18 10:00:45;;;;;;;2.43;0.90;;;27.10;99.90;;;;;;4934347;29;20660;-77
2023/09/18 10:03:22;;;;;;;3.30;1.63;;;27.20;99.90;;;;;;4943923;29;20585;-77
2023/09/18 10:05:53;;;;;;;2.87;0.80;;;27.30;99.90;;;;;;4953655;29;20675;-77
2023/09/18 10:08:27;;;;;;;3.00;1.20;;;27.50;99.90;;;;;;4917863;29;20741;-77
2023/09/18 10:10:56;;;;;;;2.20;1.00;;;27.60;99.90;;;;;;4917294;29;20610;-76
2023/09/18 10:13:49;;;;;;;2.40;0.83;;;27.90;99.90;;;;;;4920098;29;20736;-76
2023/09/18 10:16:20;;;;;;;2.97;0.80;;;28.20;99.90;;;;;;4944207;29;20600;-77
2023/09/18 10:19:08;;;;;;;2.80;0.77;;;28.60;99.90;;;;;;4953294;29;20627;-76
2023/09/18 10:22:12;;;;;;;3.73;1.00;;;29.00;99.90;;;;;;4948604;29;20812;-76
2023/09/18 10:24:41;;;;;;;1.80;0.80;;;29.70;99.90;;;;;;4931218;29;21198;-76
2023/09/18 10:27:09;;;;;;;4.20;0.77;;;30.60;99.90;;;;;;4936409;29;20647;-76
2023/09/18 10:29:36;;;;;;;2.87;0.73;;;31.40;99.90;;;;;;4928211;29;20621;-76
2023/09/18 10:32:09;;;;;;;3.10;0.80;;;32.00;99.90;;;;;;4913925;29;20589;-77
2023/09/18 10:34:36;;;;;;;3.37;0.70;;;32.70;99.90;;;;;;4929118;29;20961;-76
2023/09/18 10:37:07;;;;;;;1.70;0.60;;;33.30;99.90;;;;;;4927692;29;20608;-77
2023/09/18 10:39:38;;;;;;;2.27;0.60;;;33.80;99.90;;;;;;4893878;29;20716;-77
2023/09/18 10:42:06;;;;;;;2.20;0.50;;;34.20;99.90;;;;;;4925792;29;20629;-76
2023/09/18 10:44:32;;;;;;;1.70;0.60;;;34.60;99.90;;;;;;4932698;29;20600;-76
2023/09/18 10:47:00;;;;;;;1.67;0.60;;;35.00;99.90;;;;;;4925977;29;20649;-76
2023/09/18 10:49:26;;;;;;;1.40;0.70;;;35.30;99.90;;;;;;4904335;29;20200;-76
2023/09/18 10:51:56;;;;;;;1.50;0.50;;;35.50;99.90;;;;;;4936566;29;20652;-76
2023/09/18 10:54:23;;;;;;;1.50;0.60;;;35.70;99.20;;;;;;4923057;29;20217;-76
2023/09/18 10:56:50;;;;;;;1.83;0.60;;;35.80;98.40;;;;;;4914937;29;20985;-76
2023/09/18 10:59:17;;;;;;;1.70;0.57;;;35.90;97.90;;;;;;4915039;29;20625;-77
2023/09/18 11:01:43;;;;;;;1.53;0.70;;;36.10;96.90;;;;;;4924336;29;21484;-76
2023/09/18 11:04:10;;;;;;;2.23;0.70;;;36.30;95.20;;;;;;4949483;29;20675;-77
2023/09/18 11:07:21;;;;;;;1.80;0.70;;;36.30;93.90;;;;;;4930256;29;20592;-77
2023/09/18 11:09:47;;;;;;;2.37;0.60;;;36.30;93.20;;;;;;4895813;29;21423;-77
2023/09/18 11:12:17;;;;;;;1.50;0.50;;;36.50;92.40;;;;;;4928042;29;20656;-75
2023/09/18 11:14:57;;;;;;;1.40;0.50;;;36.50;91.70;;;;;;4928096;29;20204;-77
2023/09/18 11:17:37;;;;;;;1.60;0.53;;;36.50;87.50;;;;;;4889764;29;20636;-77
2023/09/18 11:20:06;;;;;;;1.50;0.80;;;36.50;82.70;;;;;;4929843;29;20629;-77
2023/09/18 11:22:32;;;;;;;2.60;0.67;;;36.50;87.60;;;;;;4905444;29;20603;-77
2023/09/18 11:25:34;;;;;;;2.97;0.70;;;36.50;86.60;;;;;;4929107;29;20596;-77
2023/09/18 11:28:01;;;;;;;1.50;0.80;;;36.50;82.90;;;;;;4921106;29;20240;-77
2023/09/18 11:30:28;;;;;;;1.60;0.60;;;36.40;81.90;;;;;;4928694;29;20587;-77
2023/09/18 11:32:55;;;;;;;4.53;0.80;;;36.30;80.50;;;;;;4937796;29;20580;-77
2023/09/18 11:35:21;;;;;;;1.63;0.60;;;36.30;79.90;;;;;;4903073;29;20646;-76
2023/09/18 11:38:05;;;;;;;1.60;0.60;;;36.20;77.80;;;;;;4927151;29;20658;-76
2023/09/18 11:40:37;;;;;;;1.80;0.60;;;36.00;77.00;;;;;;4911758;29;20753;-76
2023/09/18 11:43:29;;;;;;;1.70;0.60;;;35.90;76.80;;;;;;4928301;29;20616;-76
2023/09/18 11:45:59;;;;;;;4.57;0.70;;;35.90;76.10;;;;;;4933156;29;20965;-76
2023/09/18 11:48:29;;;;;;;1.83;0.87;;;35.70;73.80;;;;;;4905419;29;20628;-76
2023/09/18 11:50:56;;;;;;;3.53;0.70;;;35.50;73.10;;;;;;4895947;29;20588;-76
2023/09/18 11:53:33;;;;;;;2.10;0.70;;;35.30;72.30;;;;;;4910251;29;20653;-76
2023/09/18 11:56:03;;;;;;;2.20;0.87;;;35.20;68.20;;;;;;4928003;29;20625;-76
2023/09/18 11:58:28;;;;;;;3.03;1.13;;;35.10;73.60;;;;;;4931923;29;20715;-77
2023/09/18 12:00:55;;;;;;;3.10;0.73;;;35.10;74.10;;;;;;4934378;29;20641;-76
2023/09/18 12:03:26;;;;;;;1.70;0.70;;;35.10;73.70;;;;;;4932286;29;20991;-77
2023/09/18 12:06:05;;;;;;;2.53;0.60;;;35.10;72.90;;;;;;4928787;29;20577;-76
2023/09/18 12:08:31;;;;;;;1.40;0.60;;;35.10;73.10;;;;;;4923957;29;20624;-76
2023/09/18 12:10:58;;;;;;;1.50;0.73;;;35.10;72.40;;;;;;4938775;29;20599;-76
2023/09/18 12:13:30;;;;;;;2.60;0.70;;;35.10;71.20;;;;;;4926743;29;20599;-77
2023/09/18 12:16:05;;;;;;;2.47;1.30;;;35.00;70.60;;;;;;4935257;29;20593;-76
2023/09/18 12:18:37;;;;;;;2.00;1.00;;;34.90;68.90;;;;;;4907875;29;20676;-76
2023/09/18 12:21:06;;;;;;;2.13;1.23;;;34.80;68.20;;;;;;4896649;29;20645;-76
2023/09/18 12:23:44;;;;;;;1.70;0.70;;;34.50;68.00;;;;;;4936035;29;20656;-76
2023/09/18 12:26:15;;;;;;;2.07;0.70;;;34.40;68.00;;;;;;4943672;29;20600;-76
2023/09/18 12:28:42;;;;;;;2.17;0.63;;;34.30;69.00;;;;;;4924826;29;20653;-76
2023/09/18 12:31:13;;;;;;;1.63;0.70;;;34.20;68.20;;;;;;4924844;29;20656;-76
2023/09/18 12:33:41;;;;;;;1.70;0.90;;;34.00;67.00;;;;;;4927617;29;20618;-76
2023/09/18 12:36:08;;;;;;;2.63;1.20;;;33.80;67.30;;;;;;4918900;29;20603;-76
2023/09/18 12:38:34;;;;;;;1.70;0.70;;;33.60;67.10;;;;;;4895372;29;20628;-76
2023/09/18 12:41:05;;;;;;;1.70;0.70;;;33.30;67.20;;;;;;4934665;29;20644;-77
2023/09/18 12:43:41;;;;;;;1.83;0.90;;;33.20;68.00;;;;;;4918511;29;21197;-77
2023/09/18 12:46:09;;;;;;;1.77;0.70;;;33.00;67.10;;;;;;4926539;29;21218;-76
2023/09/18 12:48:45;;;;;;;1.77;0.83;;;32.80;67.00;;;;;;4939358;29;20622;-76
2023/09/18 12:51:11;;;;;;;2.00;0.63;;;32.70;67.60;;;;;;4946584;29;20594;-76
2023/09/18 12:53:40;;;;;;;1.70;0.70;;;32.60;68.30;;;;;;4926291;29;20657;-76